createdAt,value
2023-03-08T00:03:15.832Z,4.90
2023-03-08T00:10:26.217Z,4.80
2023-03-08T00:13:31.378Z,4.60
2023-03-08T00:20:21.292Z,4.70
2023-03-08T00:22:52.921Z,4.90
2023-03-08T00:25:32.733Z,4.60
2023-03-08T00:28:04.108Z,4.90
2023-03-08T00:30:35.615Z,4.80
2023-03-08T00:33:13.546Z,4.90
2023-03-08T00:35:41.392Z,4.50
2023-03-08T00:38:33.602Z,4.60
2023-03-08T00:41:11.598Z,4.80
2023-03-08T00:43:44.144Z,4.60
2023-03-08T00:46:15.783Z,4.70
2023-03-08T00:48:51.055Z,4.70
2023-03-08T00:51:20.983Z,4.80
2023-03-08T00:53:52.172Z,4.60
2023-03-08T00:56:23.292Z,4.60
2023-03-08T00:58:51.675Z,4.50
2023-03-08T01:01:24.410Z,4.80
2023-03-08T01:03:53.686Z,4.70
2023-03-08T01:06:25.891Z,4.50
2023-03-08T01:09:01.321Z,4.90
2023-03-08T01:11:36.212Z,4.50
2023-03-08T01:14:12.946Z,4.50
2023-03-08T01:16:49.289Z,4.80
2023-03-08T01:19:23.850Z,4.60
2023-03-08T01:21:55.163Z,4.60
2023-03-08T01:24:32.747Z,4.60
2023-03-08T01:27:02.773Z,4.60
2023-03-08T01:29:30.938Z,4.50
2023-03-08T01:32:01.276Z,4.80
2023-03-08T01:34:29.031Z,4.40
2023-03-08T01:36:56.931Z,4.70
2023-03-08T01:39:24.764Z,4.60
2023-03-08T01:41:52.499Z,4.50
2023-03-08T01:44:25.133Z,4.80
2023-03-08T01:46:53.820Z,4.60
2023-03-08T01:49:26.234Z,4.40
2023-03-08T01:52:13.364Z,4.70
2023-03-08T01:54:56.096Z,4.60
2023-03-08T01:57:52.254Z,4.60
2023-03-08T02:00:30.847Z,4.70
2023-03-08T02:03:28.088Z,4.60
2023-03-08T02:06:06.147Z,4.60
2023-03-08T02:08:37.839Z,4.30
2023-03-08T02:11:09.504Z,4.50
2023-03-08T02:13:57.444Z,4.50
2023-03-08T02:16:29.119Z,4.60
2023-03-08T02:19:07.937Z,4.40
2023-03-08T02:21:44.204Z,4.50
2023-03-08T02:24:25.243Z,4.50
2023-03-08T02:27:05.650Z,4.90
2023-03-08T02:29:33.351Z,4.60
2023-03-08T02:32:01.381Z,4.50
2023-03-08T02:34:29.123Z,4.70
2023-03-08T02:37:01.507Z,4.60
2023-03-08T02:39:29.210Z,4.50
2023-03-08T02:42:00.032Z,4.50
2023-03-08T02:44:30.714Z,4.40
2023-03-08T02:47:02.435Z,4.40
2023-03-08T02:49:35.172Z,4.70
2023-03-08T02:52:09.912Z,4.20
2023-03-08T02:54:46.273Z,4.30
2023-03-08T02:57:28.203Z,4.40
2023-03-08T03:00:07.548Z,4.60
2023-03-08T03:02:47.773Z,4.30
2023-03-08T03:05:28.773Z,4.30
2023-03-08T03:08:05.601Z,4.20
2023-03-08T03:11:04.214Z,4.10
2023-03-08T03:13:44.423Z,4.10
2023-03-08T03:16:24.967Z,4.20
2023-03-08T03:19:08.715Z,4.40
2023-03-08T03:21:47.507Z,4.00
2023-03-08T03:24:56.039Z,4.10
2023-03-08T03:27:29.736Z,4.10
2023-03-08T03:30:06.859Z,3.70
2023-03-08T03:32:36.796Z,4.00
2023-03-08T03:35:05.585Z,4.00
2023-03-08T03:37:41.408Z,4.00
2023-03-08T03:40:17.516Z,3.90
2023-03-08T03:42:55.706Z,3.70
2023-03-08T03:45:48.947Z,4.00
2023-03-08T03:48:23.677Z,3.80
2023-03-08T03:51:05.928Z,3.80
2023-03-08T03:53:44.068Z,3.80
2023-03-08T03:56:27.130Z,3.70
2023-03-08T03:58:58.171Z,3.70
2023-03-08T04:01:36.432Z,3.60
2023-03-08T04:04:13.497Z,3.70
2023-03-08T04:06:45.652Z,3.90
2023-03-08T04:09:25.138Z,3.80
2023-03-08T04:12:09.590Z,3.60
2023-03-08T04:15:00.848Z,3.50
2023-03-08T04:17:46.442Z,3.90
2023-03-08T04:23:11.368Z,3.50
2023-03-08T04:26:09.853Z,3.80
2023-03-08T04:32:22.986Z,3.90
2023-03-08T04:35:00.971Z,3.60
2023-03-08T04:38:21.127Z,3.90
2023-03-08T04:41:11.317Z,3.80
2023-03-08T04:43:51.187Z,3.80
2023-03-08T04:46:31.985Z,3.60
2023-03-08T04:49:10.208Z,3.80
2023-03-08T04:52:35.796Z,3.90
2023-03-08T04:56:12.422Z,3.70
2023-03-08T04:59:33.078Z,3.50
2023-03-08T05:02:32.524Z,3.70
2023-03-08T06:28:54.028Z,4.20
2023-03-08T06:31:29.297Z,4.40
2023-03-08T06:34:02.158Z,4.40
2023-03-08T06:36:40.384Z,4.00
2023-03-08T06:39:10.521Z,4.50
2023-03-08T06:41:48.092Z,4.10
2023-03-08T06:44:26.093Z,4.40
2023-03-08T06:46:53.588Z,4.10
2023-03-08T06:49:24.765Z,4.50
2023-03-08T06:51:52.342Z,4.60
2023-03-08T06:54:20.131Z,4.70
2023-03-08T06:56:54.351Z,4.80
2023-03-08T06:59:29.464Z,5.00
2023-03-08T07:01:57.127Z,5.30
2023-03-08T07:04:24.639Z,5.30
2023-03-08T07:06:51.963Z,5.40
2023-03-08T07:12:29.102Z,5.60
2023-03-08T07:15:05.636Z,6.20
2023-03-08T07:17:35.193Z,6.00
2023-03-08T07:20:35.312Z,6.30
2023-03-08T07:35:12.151Z,6.10
2023-03-08T07:38:49.379Z,6.30
2023-03-08T07:41:21.364Z,6.40
2023-03-08T07:43:50.825Z,6.50
2023-03-08T07:46:19.622Z,6.40
2023-03-08T07:48:55.149Z,6.60
2023-03-08T07:51:26.759Z,6.50
2023-03-08T07:53:54.190Z,7.10
2023-03-08T07:56:21.694Z,7.20
2023-03-08T07:58:49.153Z,7.20
2023-03-08T08:01:16.920Z,7.40
2023-03-08T08:03:45.015Z,7.50
2023-03-08T08:06:16.876Z,7.40
2023-03-08T08:08:44.582Z,7.40
2023-03-08T08:11:15.092Z,7.10
2023-03-08T08:13:43.569Z,7.50
2023-03-08T08:16:57.126Z,8.50
2023-03-08T08:19:32.358Z,9.60
2023-03-08T08:22:21.828Z,10.50
2023-03-08T08:24:51.897Z,10.70
2023-03-08T08:27:19.622Z,10.70
2023-03-08T08:29:49.666Z,11.30
2023-03-08T08:32:17.099Z,11.60
2023-03-08T08:34:45.267Z,11.60
2023-03-08T08:37:12.793Z,11.80
2023-03-08T08:39:41.449Z,12.00
2023-03-08T08:42:09.032Z,12.40
2023-03-08T08:44:36.624Z,12.50
2023-03-08T08:47:04.671Z,12.60
2023-03-08T08:49:34.245Z,12.70
2023-03-08T08:52:05.005Z,12.90
2023-03-08T08:54:35.398Z,13.20
2023-03-08T08:57:03.230Z,12.80
2023-03-08T08:59:30.624Z,12.20
2023-03-08T09:02:00.794Z,12.40
2023-03-08T09:04:29.742Z,13.20
2023-03-08T09:06:57.651Z,13.00
2023-03-08T09:09:27.012Z,13.30
2023-03-08T09:11:55.896Z,13.20
2023-03-08T09:14:25.886Z,13.00
2023-03-08T09:16:53.499Z,13.30
2023-03-08T09:19:23.367Z,14.20
2023-03-08T09:21:50.918Z,13.30
2023-03-08T09:24:18.509Z,12.90
2023-03-08T09:26:45.871Z,12.90
2023-03-08T09:29:13.294Z,13.30
2023-03-08T09:31:42.750Z,13.60
2023-03-08T09:34:14.359Z,13.70
2023-03-08T09:36:42.582Z,13.70
2023-03-08T09:39:13.166Z,14.00
2023-03-08T09:42:12.506Z,13.60
2023-03-08T09:45:18.654Z,13.80
2023-03-08T09:48:22.513Z,13.70
2023-03-08T09:50:59.286Z,13.80
2023-03-08T09:53:55.631Z,14.00
2023-03-08T09:56:55.524Z,13.70
2023-03-08T09:59:41.614Z,13.70
2023-03-08T10:02:40.572Z,13.50
2023-03-08T10:05:48.944Z,14.10
2023-03-08T10:32:07.573Z,13.50
2023-03-08T10:34:35.500Z,13.70
2023-03-08T10:37:10.000Z,13.60
2023-03-08T10:40:07.762Z,13.40
2023-03-08T10:42:59.021Z,13.50
2023-03-08T10:45:42.546Z,13.70
2023-03-08T10:48:42.408Z,13.80
2023-03-08T10:51:29.771Z,13.60
2023-03-08T10:54:07.503Z,13.40
2023-03-08T10:56:46.463Z,13.20
2023-03-08T10:59:37.868Z,13.00
2023-03-08T11:02:14.362Z,12.90
2023-03-08T11:04:57.001Z,12.60
2023-03-08T11:07:29.704Z,12.80
2023-03-08T11:10:18.514Z,12.80
2023-03-08T11:12:47.281Z,12.70
2023-03-08T11:15:16.167Z,12.90
2023-03-08T11:18:04.249Z,13.00
2023-03-08T11:20:52.589Z,12.80
2023-03-08T11:23:45.151Z,12.30
2023-03-08T11:26:37.136Z,12.20
2023-03-08T11:29:15.004Z,11.80
2023-03-08T11:32:11.504Z,11.60
2023-03-08T11:35:06.071Z,11.50
2023-03-08T11:37:54.515Z,11.10
2023-03-08T11:40:42.203Z,11.40
2023-03-08T11:43:18.144Z,11.40
2023-03-08T11:45:52.346Z,11.20
2023-03-08T11:48:41.578Z,11.10
2023-03-08T11:51:50.656Z,11.30
2023-03-08T11:54:36.912Z,11.20
2023-03-08T11:57:30.243Z,11.10
2023-03-08T12:00:24.190Z,11.20
2023-03-08T12:02:53.764Z,10.80
2023-03-08T12:05:37.058Z,10.60
2023-03-08T12:11:10.265Z,11.00
2023-03-08T12:14:20.149Z,11.00
2023-03-08T12:17:47.801Z,11.10
2023-03-08T12:52:39.377Z,11.60
2023-03-08T12:55:06.130Z,11.20
2023-03-08T12:58:30.525Z,11.40
2023-03-08T14:41:39.701Z,10.40
2023-03-08T14:48:44.636Z,9.80
2023-03-08T15:24:03.614Z,9.40
2023-03-08T15:27:38.533Z,9.40
2023-03-08T15:31:23.878Z,9.50
2023-03-08T15:49:41.655Z,9.50
2023-03-08T15:53:08.356Z,9.40
2023-03-08T15:55:57.251Z,9.40
2023-03-08T15:58:33.005Z,9.40
2023-03-08T16:01:03.057Z,9.30
2023-03-08T16:03:50.644Z,9.30
2023-03-08T16:06:23.077Z,9.40
2023-03-08T16:09:07.705Z,9.20
2023-03-08T16:11:35.240Z,9.30
2023-03-08T16:14:02.772Z,9.20
2023-03-08T16:16:44.464Z,9.60
2023-03-08T16:19:12.896Z,9.30
2023-03-08T16:21:40.477Z,9.20
2023-03-08T16:24:07.928Z,9.40
2023-03-08T16:26:35.476Z,9.30
2023-03-08T16:29:03.040Z,9.30
2023-03-08T16:31:35.309Z,9.10
2023-03-08T16:35:02.033Z,9.20
2023-03-08T16:37:40.186Z,9.20
2023-03-08T16:40:49.389Z,9.10
2023-03-08T16:44:14.076Z,9.20
2023-03-08T16:46:51.885Z,9.20
2023-03-08T16:49:23.316Z,7.90
2023-03-08T16:51:56.681Z,9.20
2023-03-08T16:54:26.734Z,9.10
2023-03-08T16:56:54.585Z,9.40
2023-03-08T16:59:22.150Z,9.00
2023-03-08T17:01:50.362Z,9.00
2023-03-08T17:04:19.931Z,9.00
2023-03-08T17:06:49.462Z,9.00
2023-03-08T17:09:22.648Z,9.00
2023-03-08T17:11:53.732Z,9.10
2023-03-08T17:14:22.347Z,9.40
2023-03-08T17:16:59.344Z,9.10
2023-03-08T17:19:27.274Z,9.10
2023-03-08T17:21:54.830Z,9.10
2023-03-08T17:24:22.368Z,9.00
2023-03-08T17:26:56.210Z,9.40
2023-03-08T17:29:24.119Z,9.10
2023-03-08T17:31:54.852Z,9.40
2023-03-08T17:34:23.350Z,9.10
2023-03-08T17:36:55.984Z,9.30
2023-03-08T17:39:43.785Z,9.20
2023-03-08T17:42:11.509Z,9.00
2023-03-08T17:44:39.059Z,9.00
2023-03-08T17:47:16.113Z,9.00
2023-03-08T17:49:52.692Z,9.00
2023-03-08T17:52:25.444Z,8.90
2023-03-08T17:54:54.660Z,9.10
2023-03-08T17:57:23.041Z,8.90
2023-03-08T17:59:55.368Z,8.80
2023-03-08T18:02:22.992Z,8.80
2023-03-08T18:04:54.263Z,8.70
2023-03-08T18:07:23.090Z,8.70
2023-03-08T18:09:53.449Z,8.40
2023-03-08T18:12:24.509Z,8.40
2023-03-08T18:14:53.884Z,8.30
2023-03-08T18:17:22.494Z,8.30
2023-03-08T18:19:50.041Z,8.10
2023-03-08T18:22:20.050Z,7.70
2023-03-08T18:24:47.391Z,7.90
2023-03-08T18:31:02.701Z,8.00
2023-03-08T18:33:30.455Z,8.00
2023-03-08T18:35:58.964Z,7.80
2023-03-08T18:38:26.528Z,7.60
2023-03-08T18:40:54.138Z,7.60
2023-03-08T18:43:21.519Z,7.70
2023-03-08T18:46:11.051Z,7.70
2023-03-08T18:48:44.140Z,7.70
2023-03-08T18:51:11.572Z,7.80
2023-03-08T18:53:39.285Z,7.40
2023-03-08T18:56:07.607Z,7.40
2023-03-08T18:58:35.597Z,7.80
2023-03-08T19:01:11.057Z,7.40
2023-03-08T19:03:42.532Z,7.40
2023-03-08T19:06:17.953Z,7.50
2023-03-08T19:09:01.133Z,7.30
2023-03-08T19:12:11.964Z,7.10
2023-03-08T19:15:11.088Z,7.60
2023-03-08T19:18:08.247Z,7.40
2023-03-08T19:28:24.195Z,6.90
2023-03-08T19:31:44.401Z,7.00
2023-03-08T19:34:21.555Z,6.80
2023-03-08T19:36:53.556Z,6.90
2023-03-08T19:39:43.825Z,6.90
2023-03-08T19:42:26.249Z,6.90
2023-03-08T19:44:54.618Z,7.20
2023-03-08T19:47:27.859Z,7.10
2023-03-08T19:49:59.435Z,6.90
2023-03-08T19:52:33.998Z,7.20
2023-03-08T19:55:07.766Z,7.20
2023-03-08T19:57:42.032Z,7.10
2023-03-08T20:00:10.385Z,6.80
2023-03-08T20:02:39.687Z,6.80
2023-03-08T20:05:07.830Z,6.70
2023-03-08T20:07:35.440Z,6.70
2023-03-08T20:10:15.420Z,6.80
2023-03-08T20:12:44.582Z,7.00
2023-03-08T20:15:12.413Z,7.00
2023-03-08T20:17:41.338Z,6.80
2023-03-08T20:20:10.085Z,7.10
2023-03-08T20:22:38.479Z,6.70
2023-03-08T20:25:12.305Z,6.80
2023-03-08T20:27:43.804Z,6.80
2023-03-08T20:30:13.633Z,6.70
2023-03-08T20:32:41.602Z,6.90
2023-03-08T20:35:14.171Z,6.90
2023-03-08T20:37:42.347Z,6.80
2023-03-08T20:40:24.672Z,7.20
2023-03-08T20:43:16.943Z,6.90
2023-03-08T20:46:07.060Z,6.90
2023-03-08T20:51:56.656Z,6.90
2023-03-08T20:58:08.913Z,6.80
2023-03-08T21:00:51.546Z,6.70
2023-03-08T21:03:27.396Z,6.50
2023-03-08T21:05:55.957Z,6.50
2023-03-08T21:08:28.429Z,6.70
2023-03-08T21:10:59.783Z,7.00
2023-03-08T21:13:27.563Z,6.70
2023-03-08T21:16:02.754Z,6.60
2023-03-08T21:18:30.892Z,6.70
2023-03-08T21:21:15.565Z,6.70
2023-03-08T21:23:51.339Z,6.80
2023-03-08T21:26:36.540Z,6.80
2023-03-08T21:29:35.174Z,7.10
2023-03-08T21:32:07.839Z,6.80
2023-03-08T21:34:54.278Z,6.70
2023-03-08T21:37:22.122Z,6.80
2023-03-08T21:39:49.762Z,6.80
2023-03-08T21:42:18.403Z,6.90
2023-03-08T21:44:47.422Z,7.10
2023-03-08T21:47:41.074Z,6.80
2023-03-08T21:50:10.057Z,6.70
2023-03-08T21:52:38.445Z,6.70
2023-03-08T21:55:08.884Z,6.70
2023-03-08T21:57:36.544Z,6.70
2023-03-08T22:00:06.308Z,6.70
2023-03-08T22:02:34.143Z,6.70
2023-03-08T22:05:04.221Z,6.70
2023-03-08T22:07:31.755Z,6.60
2023-03-08T22:10:00.881Z,6.40
2023-03-08T22:12:28.334Z,6.60
2023-03-08T22:14:56.060Z,6.50
2023-03-08T22:17:23.761Z,6.40
2023-03-08T22:20:06.315Z,6.70
2023-03-08T22:22:37.211Z,6.60
2023-03-08T22:25:08.571Z,6.50
2023-03-08T22:27:36.561Z,6.50
2023-03-08T22:30:10.923Z,6.50
2023-03-08T22:32:41.744Z,6.50
2023-03-08T22:35:13.842Z,6.50
2023-03-08T22:37:41.530Z,6.80
2023-03-08T22:40:11.651Z,6.50
2023-03-08T22:42:44.289Z,6.30
2023-03-08T22:45:15.250Z,6.40
2023-03-08T22:47:43.137Z,6.50
2023-03-08T22:50:12.552Z,6.40
2023-03-08T22:52:40.498Z,6.50
2023-03-08T22:55:09.145Z,6.40
2023-03-08T22:57:38.104Z,6.50
2023-03-08T23:00:14.644Z,6.50
2023-03-08T23:02:44.792Z,6.40
2023-03-08T23:05:16.712Z,6.60
2023-03-08T23:07:44.361Z,6.60
2023-03-08T23:10:14.487Z,6.60
2023-03-08T23:12:46.042Z,6.50
2023-03-08T23:15:14.164Z,6.60
2023-03-08T23:17:42.067Z,6.60
2023-03-08T23:20:12.028Z,6.40
2023-03-08T23:22:49.477Z,6.30
2023-03-08T23:25:18.721Z,6.30
2023-03-08T23:27:46.600Z,6.30
2023-03-08T23:30:16.479Z,6.40
2023-03-08T23:32:44.729Z,6.10
2023-03-08T23:35:13.612Z,6.30
2023-03-08T23:37:41.616Z,6.40
2023-03-08T23:40:18.967Z,6.40
2023-03-08T23:42:46.593Z,6.50
2023-03-08T23:45:14.637Z,6.10
2023-03-08T23:47:42.439Z,6.40
2023-03-08T23:50:11.006Z,6.50
2023-03-08T23:52:39.014Z,6.40
2023-03-08T23:55:08.794Z,6.40
2023-03-08T23:57:36.396Z,6.40
